Time;durP1;ratioP1;P1;durP2;ratioP2;P2;SDS_P1;SDS_P2;PMS_P1;PMS_P2;Temp;Humidity;BMP_temperature;BMP_pressure;BME280_temperature;BME280_humidity;BME280_pressure;Samples;Min_cycle;Max_cycle;Signal;HPM_P1;HPM_P2
2023/08/31 00:00:27;;;;;;;0.80;0.80;;;;;;;16.02;80.36;98168.94;5093680;28;40033;-79
2023/08/31 00:02:56;;;;;;;0.90;0.90;;;;;;;16.10;80.13;98185.06;5092788;28;40559;-78
2023/08/31 00:05:24;;;;;;;1.40;0.90;;;;;;;16.05;80.49;98176.66;5092445;28;42801;-79
2023/08/31 00:07:52;;;;;;;0.80;0.80;;;;;;;16.11;80.38;98186.75;5092754;28;42346;-79
2023/08/31 00:10:19;;;;;;;1.37;0.80;;;;;;;16.09;80.46;98178.03;5075862;28;39245;-79
2023/08/31 00:12:49;;;;;;;0.80;0.60;;;;;;;15.94;80.45;98157.31;5094135;28;41414;-79
2023/08/31 00:15:16;;;;;;;0.73;0.73;;;;;;;15.82;80.17;98148.66;5075534;28;42819;-78
2023/08/31 00:17:44;;;;;;;1.10;0.90;;;;;;;15.86;80.71;98171.38;5090345;28;42328;-78
2023/08/31 00:20:13;;;;;;;0.90;0.90;;;;;;;15.77;80.72;98164.25;5091474;28;41037;-77
2023/08/31 00:22:41;;;;;;;1.47;0.60;;;;;;;15.68;81.06;98165.97;5074438;28;41772;-78
2023/08/31 00:25:09;;;;;;;1.00;1.00;;;;;;;15.65;81.47;98168.06;5091143;28;41566;-79
2023/08/31 00:27:37;;;;;;;0.83;0.80;;;;;;;15.61;81.27;98166.69;5091553;28;43208;-79
2023/08/31 00:30:07;;;;;;;1.10;1.00;;;;;;;15.55;81.27;98159.25;5091034;28;40149;-78
2023/08/31 00:32:34;;;;;;;1.10;0.70;;;;;;;15.46;80.92;98156.41;5074620;28;40963;-79
2023/08/31 00:35:03;;;;;;;1.23;0.60;;;;;;;15.48;80.97;98172.28;5074309;28;41729;-79
2023/08/31 00:37:34;;;;;;;1.40;1.00;;;;;;;15.42;81.37;98184.38;5091450;28;42362;-79
2023/08/31 00:40:01;;;;;;;0.70;0.70;;;;;;;15.44;81.45;98195.75;5091130;28;38893;-79
2023/08/31 00:42:30;;;;;;;0.90;0.80;;;;;;;15.39;82.38;98200.69;5074050;28;41105;-79
2023/08/31 00:44:58;;;;;;;0.80;0.80;;;;;;;15.37;82.21;98202.63;5091202;28;42813;-79
2023/08/31 00:47:25;;;;;;;0.90;0.77;;;;;;;15.35;82.26;98201.94;5074325;28;41134;-78
2023/08/31 00:49:54;;;;;;;1.10;1.00;;;;;;;15.36;82.73;98205.44;5092053;28;40186;-78
2023/08/31 00:52:22;;;;;;;1.00;0.93;;;;;;;15.26;82.65;98176.13;5074268;28;42005;-78
2023/08/31 00:54:53;;;;;;;1.00;0.90;;;;;;;15.36;82.54;98203.63;5073919;28;43303;-80
2023/08/31 00:57:21;;;;;;;1.10;1.00;;;;;;;15.33;83.19;98201.22;5075544;28;41605;-77
2023/08/31 00:59:48;;;;;;;1.20;1.10;;;;;;;15.17;82.88;98179.63;5074791;28;39112;-78
2023/08/31 01:02:21;;;;;;;1.00;0.90;;;;;;;15.27;83.24;98209.81;5093266;28;42204;-79
2023/08/31 01:04:59;;;;;;;1.33;1.17;;;;;;;15.27;83.13;98207.16;5091809;28;42672;-78
2023/08/31 01:07:36;;;;;;;1.83;1.07;;;;;;;15.14;83.02;98195.06;5088755;28;43293;-78
2023/08/31 01:10:12;;;;;;;1.27;1.00;;;;;;;15.23;83.34;98211.06;5074794;28;39783;-78
2023/08/31 01:12:48;;;;;;;0.83;0.83;;;;;;;15.15;83.39;98200.28;5090240;28;41765;-79
2023/08/31 01:15:17;;;;;;;2.70;1.10;;;;;;;15.07;83.12;98190.31;5089045;28;43678;-79
2023/08/31 01:17:48;;;;;;;1.97;0.83;;;;;;;15.22;83.28;98214.72;5091608;28;43200;-79
2023/08/31 01:20:21;;;;;;;2.70;1.00;;;;;;;15.22;82.89;98209.38;5074808;28;40052;-78
2023/08/31 01:22:56;;;;;;;0.93;0.93;;;;;;;15.23;82.92;98210.22;5074976;28;40493;-78
2023/08/31 01:25:26;;;;;;;1.50;1.10;;;;;;;15.26;83.24;98216.13;5091598;28;41880;-78
2023/08/31 01:27:54;;;;;;;3.37;1.40;;;;;;;15.23;83.46;98211.06;5090865;28;41324;-79
2023/08/31 01:30:21;;;;;;;1.30;1.20;;;;;;;15.19;83.92;98215.00;5089894;28;40630;-79
2023/08/31 01:32:51;;;;;;;3.80;1.30;;;;;;;15.17;83.92;98216.97;5073289;28;41893;-79
2023/08/31 01:35:19;;;;;;;1.27;1.17;;;;;;;15.13;84.12;98215.56;5090366;28;43584;-80
2023/08/31 01:37:53;;;;;;;1.47;1.20;;;;;;;15.12;84.26;98219.22;5091815;28;42126;-79
2023/08/31 01:40:24;;;;;;;1.10;0.97;;;;;;;15.10;84.42;98215.84;5073459;28;38904;-78
2023/08/31 01:42:54;;;;;;;2.10;1.60;;;;;;;15.09;84.43;98214.16;5090201;28;41706;-79
2023/08/31 01:45:23;;;;;;;2.83;1.80;;;;;;;15.07;84.61;98216.13;5089752;28;41696;-79
2023/08/31 01:47:51;;;;;;;2.03;1.63;;;;;;;15.07;84.87;98216.13;5090217;28;42523;-79
2023/08/31 01:50:19;;;;;;;1.70;1.43;;;;;;;15.05;84.73;98218.09;5091194;28;40949;-79
2023/08/31 01:52:47;;;;;;;3.07;1.70;;;;;;;15.04;84.94;98219.06;5073588;28;41834;-79
2023/08/31 01:55:15;;;;;;;1.60;1.50;;;;;;;15.04;84.54;98222.59;5091010;28;42667;-79
2023/08/31 01:57:43;;;;;;;1.80;1.70;;;;;;;15.06;84.70;98219.78;5108074;28;43191;-79
2023/08/31 02:00:20;;;;;;;1.53;1.43;;;;;;;15.04;84.83;98224.41;5088499;28;41062;-78
2023/08/31 02:02:48;;;;;;;2.03;1.70;;;;;;;15.08;84.78;98239.16;5088765;28;41796;-78
2023/08/31 02:05:16;;;;;;;1.57;1.47;;;;;;;15.05;84.52;98226.94;5090937;28;42940;-79
2023/08/31 02:07:44;;;;;;;2.20;2.00;;;;;;;14.86;84.42;98207.41;5092275;28;42204;-78
2023/08/31 02:10:11;;;;;;;1.40;1.30;;;;;;;15.04;84.91;98238.59;5090888;28;39875;-78
2023/08/31 02:12:39;;;;;;;2.80;2.10;;;;;;;15.02;84.25;98231.69;5090988;28;41793;-78
2023/08/31 02:15:07;;;;;;;2.87;1.63;;;;;;;14.89;84.53;98207.13;5073655;28;41700;-79
2023/08/31 02:17:37;;;;;;;1.63;1.53;;;;;;;15.00;84.31;98231.00;5074142;28;41346;-78
2023/08/31 02:20:06;;;;;;;2.53;1.53;;;;;;;14.98;84.14;98227.63;5073819;28;38876;-79
2023/08/31 02:22:35;;;;;;;2.17;1.97;;;;;;;14.95;84.56;98231.44;5089478;28;42695;-79
2023/08/31 02:25:03;;;;;;;2.10;1.43;;;;;;;14.88;84.21;98232.09;5089446;28;42419;-79
2023/08/31 02:27:31;;;;;;;2.10;1.80;;;;;;;14.90;84.11;98238.97;5072803;28;43590;-78
2023/08/31 02:29:58;;;;;;;1.90;1.70;;;;;;;14.87;83.91;98238.41;5089614;28;39903;-78
2023/08/31 02:32:26;;;;;;;1.70;1.60;;;;;;;14.85;83.69;98240.38;5072921;28;41844;-79
2023/08/31 02:34:55;;;;;;;5.83;1.97;;;;;;;14.83;83.88;98237.00;5089581;28;41691;-76
2023/08/31 02:37:22;;;;;;;1.70;1.60;;;;;;;14.80;84.36;98245.28;5089415;28;43587;-76
2023/08/31 02:39:51;;;;;;;2.63;1.50;;;;;;;14.81;84.43;98246.97;5072513;28;38737;-75
2023/08/31 02:42:19;;;;;;;4.23;2.00;;;;;;;14.77;84.29;98242.88;5089628;28;41595;-77
2023/08/31 02:44:47;;;;;;;2.90;2.20;;;;;;;14.80;83.90;98246.13;5090674;28;43856;-78
2023/08/31 02:47:14;;;;;;;1.90;1.70;;;;;;;14.80;83.73;98247.94;5072412;28;43397;-77
2023/08/31 02:49:42;;;;;;;2.97;2.00;;;;;;;14.81;83.72;98249.63;5072557;28;39913;-79
2023/08/31 02:52:11;;;;;;;2.00;1.73;;;;;;;14.79;83.82;98254.25;5090656;28;42687;-80
2023/08/31 02:54:38;;;;;;;1.93;1.73;;;;;;;14.75;84.27;98259.00;5090522;28;42699;-79
2023/08/31 02:57:06;;;;;;;3.53;2.70;;;;;;;14.73;84.22;98248.47;5091486;28;43192;-79
2023/08/31 02:59:35;;;;;;;3.07;1.80;;;;;;;14.65;84.50;98237.66;5107509;28;39908;-79
2023/08/31 03:02:03;;;;;;;2.30;1.90;;;;;;;14.73;83.90;98256.47;5090362;28;42520;-79
2023/08/31 03:04:31;;;;;;;2.50;1.77;;;;;;;14.73;83.77;98259.13;5090215;28;43995;-78
2023/08/31 03:06:58;;;;;;;2.90;1.93;;;;;;;14.70;83.79;98259.44;5090264;28;42359;-79
2023/08/31 03:09:27;;;;;;;3.43;1.80;;;;;;;14.66;83.71;98259.84;5090751;28;40040;-78
2023/08/31 03:11:55;;;;;;;2.70;1.73;;;;;;;14.62;83.80;98253.06;5106802;28;41820;-79
2023/08/31 03:14:23;;;;;;;1.70;1.60;;;;;;;14.60;83.90;98260.34;5089332;28;42697;-79
2023/08/31 03:16:51;;;;;;;1.70;1.57;;;;;;;14.56;83.83;98257.16;5089036;28;42211;-76
2023/08/31 03:19:18;;;;;;;3.17;2.27;;;;;;;14.34;83.93;98228.03;5092579;28;39583;-76
2023/08/31 03:21:45;;;;;;;1.97;1.60;;;;;;;14.54;83.41;98260.91;5092289;28;42752;-77
2023/08/31 03:24:13;;;;;;;2.50;1.80;;;;;;;14.46;83.68;98247.44;5075509;28;42797;-78
2023/08/31 03:26:42;;;;;;;2.73;2.10;;;;;;;14.51;83.54;98267.34;5109243;28;42294;-79
2023/08/31 03:29:09;;;;;;;3.53;2.03;;;;;;;14.49;83.43;98269.31;5092620;28;40133;-79
2023/08/31 03:31:37;;;;;;;1.93;1.73;;;;;;;14.47;83.62;98268.59;5109400;28;42666;-78
2023/08/31 03:34:04;;;;;;;3.40;2.47;;;;;;;14.44;83.67;98279.53;5092479;28;43050;-79
2023/08/31 03:36:32;;;;;;;2.73;2.00;;;;;;;14.42;83.70;98278.81;5092118;28;43252;-79
2023/08/31 03:39:00;;;;;;;2.80;2.13;;;;;;;14.42;83.86;98285.97;5092328;28;41731;-78
2023/08/31 03:41:27;;;;;;;3.83;2.20;;;;;;;14.46;83.62;98280.25;5092016;28;41733;-78
2023/08/31 03:43:56;;;;;;;2.67;2.10;;;;;;;14.49;83.80;98285.28;5093525;28;43280;-79
2023/08/31 03:46:24;;;;;;;3.77;2.30;;;;;;;14.52;84.05;98284.19;5091850;28;43385;-79
2023/08/31 03:48:52;;;;;;;3.10;2.20;;;;;;;14.59;84.17;98296.81;5092480;28;40569;-80
2023/08/31 03:51:19;;;;;;;2.40;2.20;;;;;;;14.63;83.92;98292.91;5092066;28;42974;-79
2023/08/31 03:53:47;;;;;;;2.37;2.17;;;;;;;14.69;83.97;98291.56;5094084;28;43888;-79
2023/08/31 03:56:15;;;;;;;2.23;1.87;;;;;;;14.73;83.68;98298.28;5094084;28;43201;-78
2023/08/31 03:58:43;;;;;;;2.40;2.00;;;;;;;14.76;83.53;98297.16;5110377;28;40198;-78
2023/08/31 04:01:14;;;;;;;3.13;2.03;;;;;;;14.74;83.41;98299.97;5092447;28;42761;-78
2023/08/31 04:03:43;;;;;;;4.43;2.63;;;;;;;14.60;83.32;98281.69;5091021;28;43826;-78
2023/08/31 04:06:11;;;;;;;3.03;2.13;;;;;;;14.72;83.12;98308.09;5092745;28;43277;-78
2023/08/31 04:08:41;;;;;;;2.50;2.30;;;;;;;14.72;83.60;98301.91;5090168;28;39964;-78
2023/08/31 04:11:09;;;;;;;2.53;2.27;;;;;;;14.71;83.62;98301.06;5092738;28;42973;-79
2023/08/31 04:13:36;;;;;;;2.80;1.93;;;;;;;14.73;83.21;98309.78;5110032;28;42571;-78
2023/08/31 04:16:04;;;;;;;1.70;1.60;;;;;;;14.78;83.36;98311.22;5109517;28;42520;-78
2023/08/31 04:18:33;;;;;;;1.83;1.70;;;;;;;14.83;82.78;98317.84;5093072;28;40009;-78
2023/08/31 04:21:03;;;;;;;4.33;2.00;;;;;;;14.78;82.73;98306.72;5092213;28;41906;-78
2023/08/31 04:23:31;;;;;;;2.03;1.70;;;;;;;14.84;82.83;98319.50;5090565;28;44090;-75
2023/08/31 04:25:59;;;;;;;2.03;1.90;;;;;;;14.82;82.65;98323.31;5107719;28;42465;-74
2023/08/31 04:28:26;;;;;;;2.40;1.97;;;;;;;14.74;82.24;98322.13;5092226;28;41772;-74
2023/08/31 04:30:54;;;;;;;2.50;1.90;;;;;;;14.68;82.62;98332.50;5090804;28;42779;-74
2023/08/31 04:33:21;;;;;;;2.27;1.70;;;;;;;14.61;82.41;98337.50;5090963;28;43600;-74
2023/08/31 04:35:50;;;;;;;2.47;2.27;;;;;;;14.57;82.66;98336.13;5091993;28;43307;-74
2023/08/31 04:38:18;;;;;;;1.97;1.73;;;;;;;14.55;82.65;98338.06;5092081;28;40071;-74
2023/08/31 04:40:45;;;;;;;5.00;2.30;;;;;;;14.54;82.92;98343.53;5090575;28;41603;-74
2023/08/31 04:43:13;;;;;;;2.27;2.10;;;;;;;14.53;82.73;98339.16;5092046;28;42783;-74
2023/08/31 04:45:40;;;;;;;2.70;2.33;;;;;;;14.53;83.13;98344.50;5091556;28;42748;-74
2023/08/31 04:48:08;;;;;;;3.50;2.30;;;;;;;14.55;83.12;98343.38;5092128;28;40980;-74
2023/08/31 04:50:35;;;;;;;3.37;2.10;;;;;;;14.56;83.24;98342.41;5091473;28;42368;-74
2023/08/31 04:53:05;;;;;;;2.53;2.10;;;;;;;14.67;83.46;98352.13;5092089;28;42817;-73
2023/08/31 04:55:32;;;;;;;3.13;2.07;;;;;;;14.76;82.72;98354.00;5092545;28;42062;-74
2023/08/31 04:58:03;;;;;;;2.50;2.00;;;;;;;14.87;82.60;98353.03;5088485;28;40268;-74
2023/08/31 05:00:31;;;;;;;2.83;2.20;;;;;;;14.96;82.30;98362.91;5091067;28;41818;-74
2023/08/31 05:02:58;;;;;;;2.47;1.77;;;;;;;15.04;82.05;98360.41;5092232;28;43825;-74
2023/08/31 05:05:26;;;;;;;2.07;1.90;;;;;;;15.13;81.97;98361.41;5092205;28;43191;-74
2023/08/31 05:07:53;;;;;;;3.43;2.50;;;;;;;15.22;81.96;98364.09;5092872;28;40044;-74
2023/08/31 05:10:22;;;;;;;2.33;2.13;;;;;;;15.30;81.72;98360.75;5092267;28;42276;-74
2023/08/31 05:12:50;;;;;;;3.87;2.47;;;;;;;15.39;81.17;98368.78;5091418;28;42607;-73
2023/08/31 05:15:17;;;;;;;2.37;2.17;;;;;;;15.48;80.99;98371.59;5092056;28;42692;-74
2023/08/31 05:17:45;;;;;;;3.07;2.77;;;;;;;15.54;80.67;98363.03;5092633;28;41563;-74
2023/08/31 05:20:13;;;;;;;2.63;2.40;;;;;;;15.61;80.49;98369.53;5090970;28;43050;-74
2023/08/31 05:22:40;;;;;;;3.63;2.43;;;;;;;15.64;80.34;98367.44;5089917;28;44196;-74
2023/08/31 05:25:08;;;;;;;2.93;2.67;;;;;;;15.68;80.27;98360.00;5089474;28;42367;-74
2023/08/31 05:27:37;;;;;;;4.13;2.53;;;;;;;15.72;80.39;98369.38;5091442;28;39943;-74
2023/08/31 05:30:06;;;;;;;3.83;2.83;;;;;;;15.76;79.89;98365.47;5089775;28;42338;-74
2023/08/31 05:32:40;;;;;;;5.53;2.83;;;;;;;15.81;79.78;98373.91;5089987;28;42618;-79
2023/08/31 05:35:09;;;;;;;3.20;2.73;;;;;;;15.84;79.81;98370.94;5073367;28;41150;-78
2023/08/31 05:37:37;;;;;;;3.53;2.63;;;;;;;15.87;79.56;98381.34;5089484;28;39246;-78
2023/08/31 05:40:06;;;;;;;6.00;3.50;;;;;;;15.76;79.19;98357.44;5090182;28;42106;-84
2023/08/31 05:42:34;;;;;;;4.87;2.87;;;;;;;15.84;78.93;98370.94;5092084;28;43886;-82
2023/08/31 05:45:04;;;;;;;2.97;2.70;;;;;;;15.98;78.96;98386.53;5090831;28;42267;-82
2023/08/31 05:47:32;;;;;;;4.17;3.33;;;;;;;15.88;78.06;98377.69;5091217;28;40650;-83
2023/08/31 05:49:59;;;;;;;3.17;2.87;;;;;;;15.98;78.03;98399.88;5091964;28;41770;-83
2023/08/31 05:52:27;;;;;;;2.63;2.43;;;;;;;15.98;77.62;98405.22;5090061;28;43086;-82
2023/08/31 05:54:54;;;;;;;4.17;2.97;;;;;;;15.93;77.93;98402.16;5091441;28;41108;-82
2023/08/31 05:57:23;;;;;;;2.87;2.53;;;;;;;15.87;77.68;98402.69;5092327;28;41221;-82
2023/08/31 05:59:50;;;;;;;2.43;2.23;;;;;;;15.84;77.89;98404.81;5092778;28;41923;-85
2023/08/31 06:02:20;;;;;;;3.40;2.43;;;;;;;15.72;78.11;98388.91;5093134;28;42920;-85
2023/08/31 06:04:47;;;;;;;3.33;2.20;;;;;;;15.83;77.67;98395.94;5090274;28;43311;-85
2023/08/31 06:07:15;;;;;;;2.30;2.10;;;;;;;16.12;76.56;98377.25;5090547;28;41852;-85
2023/08/31 06:09:42;;;;;;;2.43;2.23;;;;;;;16.63;75.64;98394.78;5090846;28;43140;-84
2023/08/31 06:12:10;;;;;;;3.20;2.40;;;;;;;16.98;74.67;98415.47;5073535;28;41812;-85
2023/08/31 06:14:37;;;;;;;2.90;2.60;;;;;;;17.14;73.76;98426.41;5092031;28;42980;-85
2023/08/31 06:17:05;;;;;;;2.50;2.17;;;;;;;17.31;73.83;98430.94;5090236;28;40042;-85
2023/08/31 06:19:36;;;;;;;2.60;2.40;;;;;;;17.56;72.34;98434.75;5090708;28;41728;-85
2023/08/31 06:22:04;;;;;;;2.77;2.40;;;;;;;17.57;72.32;98423.91;5107496;28;42948;-85
2023/08/31 06:24:32;;;;;;;2.70;2.37;;;;;;;18.06;71.17;98439.66;5090503;28;42310;-85
2023/08/31 06:26:59;;;;;;;3.00;1.90;;;;;;;18.07;71.02;98420.75;5091484;28;41032;-85
2023/08/31 06:29:27;;;;;;;2.60;2.30;;;;;;;18.07;70.72;98444.88;5091255;28;42123;-85
2023/08/31 06:31:55;;;;;;;2.40;1.80;;;;;;;17.95;70.86;98428.19;5090310;28;43843;-85
2023/08/31 06:34:22;;;;;;;3.87;2.67;;;;;;;17.98;70.79;98443.13;5107462;28;42255;-85
2023/08/31 06:36:52;;;;;;;2.70;2.50;;;;;;;17.94;70.52;98429.19;5090381;28;39785;-85
2023/08/31 06:39:19;;;;;;;2.43;2.23;;;;;;;18.09;69.91;98450.94;5090235;28;41666;-85
2023/08/31 06:41:47;;;;;;;3.43;2.13;;;;;;;18.11;70.30;98448.09;5090079;28;43811;-85
2023/08/31 06:44:14;;;;;;;2.20;2.00;;;;;;;18.16;69.79;98457.38;5090385;28;41773;-85
2023/08/31 06:46:42;;;;;;;2.77;2.57;;;;;;;18.24;68.41;98457.44;5107533;28;40050;-85
2023/08/31 06:49:10;;;;;;;2.80;2.50;;;;;;;18.45;68.52;98472.34;5091435;28;41941;-85
2023/08/31 06:51:37;;;;;;;2.83;2.00;;;;;;;18.52;68.71;98460.03;5090188;28;42718;-85
2023/08/31 06:54:07;;;;;;;2.37;2.17;;;;;;;18.80;68.10;98448.19;5094181;28;42418;-84
2023/08/31 06:56:35;;;;;;;3.97;2.20;;;;;;;19.15;66.82;98449.94;5111746;28;40965;-84
2023/08/31 06:59:03;;;;;;;2.07;1.90;;;;;;;19.03;65.68;98435.09;5094766;28;42196;-83
2023/08/31 07:01:32;;;;;;;2.17;1.67;;;;;;;19.08;65.23;98458.75;5094302;28;42591;-84
2023/08/31 07:04:00;;;;;;;2.20;2.00;;;;;;;19.29;65.53;98469.94;5094453;28;43285;-84
2023/08/31 07:06:27;;;;;;;2.70;2.00;;;;;;;19.58;65.19;98458.84;5094814;28;40135;-84
2023/08/31 07:08:55;;;;;;;2.77;1.90;;;;;;;19.66;63.58;98450.81;5094480;28;41906;-85
2023/08/31 07:11:24;;;;;;;1.93;1.60;;;;;;;19.56;62.81;98445.59;5095409;28;43633;-84
2023/08/31 07:13:52;;;;;;;3.47;1.97;;;;;;;19.59;62.58;98461.38;5095505;28;42008;-84
2023/08/31 07:16:19;;;;;;;1.60;1.50;;;;;;;19.57;62.89;98455.34;5077426;28;39152;-84
2023/08/31 07:18:46;;;;;;;1.73;1.63;;;;;;;19.65;63.87;98452.69;5094325;28;41770;-84
2023/08/31 07:21:14;;;;;;;1.90;1.70;;;;;;;19.81;63.36;98483.28;5094355;28;43072;-83
2023/08/31 07:23:42;;;;;;;1.60;1.50;;;;;;;19.96;63.62;98487.03;5092611;28;42257;-85
2023/08/31 07:26:09;;;;;;;1.77;1.50;;;;;;;19.94;60.95;98499.78;5075993;28;39202;-85
2023/08/31 07:28:38;;;;;;;1.60;1.37;;;;;;;19.79;61.29;98485.28;5093215;28;42573;-84
2023/08/31 07:31:07;;;;;;;2.43;1.60;;;;;;;19.87;61.78;98488.03;5092819;28;42712;-87
2023/08/31 07:33:35;;;;;;;2.37;1.47;;;;;;;19.93;60.76;98498.94;5093108;28;43102;-83
2023/08/31 07:36:05;;;;;;;1.47;1.37;;;;;;;20.03;59.77;98510.38;5093158;28;40262;-85
2023/08/31 07:38:34;;;;;;;2.93;1.60;;;;;;;20.25;58.96;98511.63;5093044;28;41813;-85
2023/08/31 07:41:01;;;;;;;1.47;1.37;;;;;;;20.50;59.04;98500.94;5093893;28;43339;-85
2023/08/31 07:43:29;;;;;;;2.13;1.33;;;;;;;20.85;56.75;98515.91;5093040;28;42445;-84
2023/08/31 07:45:58;;;;;;;3.23;1.50;;;;;;;21.03;57.14;98514.69;5093990;28;40970;-86
2023/08/31 07:48:26;;;;;;;3.80;1.07;;;;;;;21.22;56.08;98523.47;5096416;28;41832;-85
2023/08/31 07:50:54;;;;;;;2.10;1.33;;;;;;;21.66;53.48;98551.63;5102710;28;43487;-86
2023/08/31 07:53:22;;;;;;;1.83;1.50;;;;;;;21.84;53.38;98541.47;5103540;28;42976;-84
2023/08/31 07:55:54;;;;;;;3.17;1.20;;;;;;;22.11;52.83;98558.25;5076805;28;40165;-82
2023/08/31 07:58:23;;;;;;;1.40;0.93;;;;;;;22.23;54.74;98546.03;5111168;28;41902;-81
2023/08/31 08:00:53;;;;;;;0.93;0.83;;;;;;;22.24;53.01;98552.28;5094568;28;43358;-82
2023/08/31 08:03:22;;;;;;;1.10;1.00;;;;;;;22.15;52.64;98562.25;5076028;28;42640;-83
2023/08/31 08:05:50;;;;;;;1.17;0.77;;;;;;;22.45;51.69;98580.31;5093883;28;40747;-82
2023/08/31 08:08:18;;;;;;;3.17;1.33;;;;;;;22.50;50.36;98585.97;5094952;28;41927;-82
2023/08/31 08:10:46;;;;;;;2.20;1.03;;;;;;;23.08;49.97;98589.16;5076588;28;41971;-83
2023/08/31 08:13:13;;;;;;;1.10;1.00;;;;;;;23.38;48.32;98600.88;5093765;28;43388;-84
2023/08/31 08:15:41;;;;;;;2.03;1.17;;;;;;;24.05;45.76;98590.03;5094670;28;40193;-83
2023/08/31 08:18:09;;;;;;;1.10;0.93;;;;;;;23.94;46.66;98597.63;5094002;28;42748;-84
2023/08/31 08:20:38;;;;;;;1.63;1.17;;;;;;;24.15;46.28;98612.22;5093550;28;43053;-82
2023/08/31 08:23:06;;;;;;;2.23;1.47;;;;;;;24.08;45.50;98603.19;5092644;28;42363;-84
2023/08/31 08:25:33;;;;;;;2.83;1.47;;;;;;;23.87;45.41;98607.47;5092300;28;39980;-82
2023/08/31 08:28:01;;;;;;;2.07;1.17;;;;;;;25.08;44.22;98631.31;5093631;28;41706;-83
2023/08/31 08:30:29;;;;;;;2.63;1.10;;;;;;;25.85;42.91;98625.88;5091917;28;43824;-85
2023/08/31 08:32:57;;;;;;;1.97;1.00;;;;;;;25.47;42.17;98621.84;5092032;28;42314;-85
2023/08/31 08:35:25;;;;;;;1.70;0.97;;;;;;;25.09;42.83;98618.59;5074450;28;40695;-84
2023/08/31 08:37:54;;;;;;;2.13;1.10;;;;;;;25.07;42.58;98637.75;5092434;28;42052;-84
2023/08/31 08:40:22;;;;;;;2.17;1.13;;;;;;;25.40;43.29;98619.91;5074604;28;41790;-83
2023/08/31 08:42:53;;;;;;;2.23;1.30;;;;;;;25.93;41.06;98622.19;5093200;28;42041;-86
2023/08/31 08:45:25;;;;;;;1.60;1.30;;;;;;;26.00;40.53;98623.91;5089321;28;39856;-84
2023/08/31 08:47:53;;;;;;;1.30;0.80;;;;;;;26.08;41.12;98620.22;5074549;28;41090;-83
2023/08/31 08:50:23;;;;;;;3.10;1.40;;;;;;;26.56;39.87;98631.94;5091707;28;42715;-83
2023/08/31 08:52:51;;;;;;;2.73;1.20;;;;;;;27.59;37.09;98654.34;5093068;28;42078;-83
2023/08/31 08:55:22;;;;;;;2.43;1.13;;;;;;;27.44;37.11;98649.94;5093862;28;39726;-84
2023/08/31 08:57:49;;;;;;;2.17;1.40;;;;;;;28.05;35.91;98668.78;5094161;28;42867;-84
2023/08/31 09:00:17;;;;;;;1.23;1.00;;;;;;;27.55;36.89;98651.19;5075302;28;42877;-83
2023/08/31 09:02:45;;;;;;;4.37;1.27;;;;;;;26.93;37.21;98656.97;5092360;28;42236;-84
2023/08/31 09:05:14;;;;;;;3.97;1.40;;;;;;;26.39;37.94;98650.47;5093505;28;20222;-81
2023/08/31 09:08:02;;;;;;;2.83;1.00;;;;;;;25.88;39.25;98651.78;5076208;28;41940;-84
2023/08/31 09:10:40;;;;;;;1.27;1.03;;;;;;;25.67;40.38;98641.84;5093445;28;43667;-77
2023/08/31 09:13:09;;;;;;;1.10;0.70;;;;;;;26.16;39.98;98635.47;5075357;28;40640;-77
2023/08/31 09:15:44;;;;;;;1.00;0.90;;;;;;;26.63;39.61;98630.06;5090780;28;40057;-77
2023/08/31 09:18:16;;;;;;;1.27;0.90;;;;;;;26.70;39.90;98641.81;5088388;28;41897;-81
2023/08/31 09:20:46;;;;;;;1.67;1.30;;;;;;;26.25;40.05;98636.97;5090207;28;41771;-74
2023/08/31 09:23:14;;;;;;;1.13;0.90;;;;;;;26.18;39.84;98652.41;5091389;28;43251;-78
2023/08/31 09:25:55;;;;;;;2.57;1.03;;;;;;;26.36;40.04;98647.31;5107554;28;41693;-77
2023/08/31 09:28:26;;;;;;;1.87;1.10;;;;;;;26.84;39.85;98648.94;5104509;28;41622;-81
2023/08/31 09:31:03;;;;;;;2.60;1.10;;;;;;;27.54;37.82;98647.63;5073433;28;43187;-77
2023/08/31 09:33:32;;;;;;;2.13;1.30;;;;;;;28.61;36.02;98662.75;5090602;28;41213;-79
2023/08/31 09:36:01;;;;;;;1.87;1.27;;;;;;;29.15;35.09;98665.03;5073356;28;39214;-78
2023/08/31 09:38:29;;;;;;;1.47;1.37;;;;;;;30.00;32.43;98673.63;5091591;28;42229;-83
2023/08/31 09:41:04;;;;;;;1.10;0.90;;;;;;;29.97;34.02;98672.19;5090041;28;41384;-77
2023/08/31 09:43:32;;;;;;;2.17;1.20;;;;;;;29.36;34.34;98661.09;5088481;28;43024;-77
2023/08/31 09:46:00;;;;;;;1.70;0.93;;;;;;;28.60;35.05;98669.25;5091153;28;40023;-81
2023/08/31 09:48:28;;;;;;;1.57;1.23;;;;;;;27.82;34.46;98673.78;5090082;28;41996;-80
2023/08/31 09:50:56;;;;;;;1.53;1.10;;;;;;;27.07;35.69;98675.00;5090192;28;42744;-82
2023/08/31 09:53:25;;;;;;;1.17;1.10;;;;;;;26.83;37.54;98658.13;5092044;28;42289;-79
2023/08/31 09:55:53;;;;;;;2.23;1.50;;;;;;;26.57;36.76;98668.94;5090963;28;39027;-76
2023/08/31 09:58:24;;;;;;;2.60;1.00;;;;;;;26.33;37.50;98656.72;5091095;28;41677;-79
2023/08/31 10:00:52;;;;;;;2.03;1.03;;;;;;;26.01;38.08;98658.16;5090520;28;42872;-80
2023/08/31 10:03:21;;;;;;;0.93;0.83;;;;;;;26.07;37.87;98661.94;5090671;28;42170;-77
2023/08/31 10:05:51;;;;;;;2.30;1.13;;;;;;;25.93;37.98;98643.91;5090849;28;39200;-80
2023/08/31 10:08:19;;;;;;;0.83;0.80;;;;;;;25.86;38.46;98660.13;5091946;28;42801;-78
2023/08/31 10:10:47;;;;;;;1.27;1.10;;;;;;;25.73;38.57;98668.16;5073816;28;42847;-80
2023/08/31 10:13:15;;;;;;;1.00;0.90;;;;;;;25.57;38.68;98653.00;5090453;28;42551;-78
2023/08/31 10:15:45;;;;;;;1.07;0.90;;;;;;;25.49;39.54;98647.72;5090407;28;40744;-80
2023/08/31 10:18:13;;;;;;;1.20;1.07;;;;;;;25.33;39.71;98646.13;5072046;28;42028;-81
2023/08/31 10:20:44;;;;;;;1.00;1.00;;;;;;;25.35;39.31;98657.59;5072361;28;41710;-79
2023/08/31 10:23:11;;;;;;;4.33;0.90;;;;;;;25.68;40.37;98647.06;5089805;28;41585;-77
2023/08/31 10:26:00;;;;;;;1.17;1.10;;;;;;;26.82;39.99;98651.06;5091032;28;40970;-76
2023/08/31 10:28:29;;;;;;;2.00;1.10;;;;;;;28.04;36.94;98672.53;5091595;28;41927;-79
2023/08/31 10:31:06;;;;;;;1.77;1.10;;;;;;;28.83;34.69;98687.84;5093060;28;43037;-82
2023/08/31 10:33:34;;;;;;;3.77;1.20;;;;;;;29.64;33.54;98702.50;5093270;28;42224;-81
2023/08/31 10:36:02;;;;;;;1.20;1.10;;;;;;;30.28;32.08;98708.66;5093345;28;40037;-78
2023/08/31 10:38:31;;;;;;;1.87;1.30;;;;;;;30.74;31.22;98699.97;5076080;28;40932;-80
2023/08/31 10:41:19;;;;;;;1.20;1.10;;;;;;;31.45;30.71;98714.81;5092821;28;43827;-78
2023/08/31 10:43:50;;;;;;;1.20;0.90;;;;;;;32.21;29.28;98730.47;5093133;28;42420;-83
2023/08/31 10:46:45;;;;;;;1.93;1.20;;;;;;;32.07;29.94;98729.84;5075938;28;38794;-81
2023/08/31 10:49:17;;;;;;;1.37;1.03;;;;;;;31.66;29.39;98728.81;5091205;28;41462;-79
2023/08/31 10:51:46;;;;;;;2.13;1.10;;;;;;;30.54;29.97;98691.97;5093015;28;41637;-80
2023/08/31 10:54:20;;;;;;;3.70;1.17;;;;;;;29.96;30.40;98721.56;5093678;28;42714;-82
2023/08/31 10:57:03;;;;;;;1.60;0.97;;;;;;;29.50;31.37;98720.00;5093831;28;39941;-80
2023/08/31 10:59:50;;;;;;;2.30;1.50;;;;;;;29.02;31.74;98718.81;5094140;28;41102;-81
2023/08/31 11:02:35;;;;;;;1.27;1.00;;;;;;;28.62;32.20;98707.19;5094028;28;41786;-81
2023/08/31 11:05:07;;;;;;;3.30;1.30;;;;;;;28.18;32.88;98700.63;5093438;28;41501;-78
2023/08/31 11:07:35;;;;;;;2.83;1.27;;;;;;;27.99;33.28;98706.88;5093722;28;40301;-79
2023/08/31 11:10:14;;;;;;;1.53;1.17;;;;;;;27.54;33.21;98702.03;5095849;28;41782;-78
2023/08/31 11:12:44;;;;;;;1.97;1.03;;;;;;;27.03;34.83;98688.16;5083605;28;41765;-79
2023/08/31 11:15:15;;;;;;;2.13;1.20;;;;;;;26.51;34.91;98686.03;5078128;28;41025;-78
2023/08/31 11:17:46;;;;;;;1.17;1.00;;;;;;;26.13;35.55;98697.28;5091118;28;40473;-79
2023/08/31 11:20:16;;;;;;;2.87;1.10;;;;;;;25.80;36.27;98692.66;5093103;28;43639;-78
2023/08/31 11:22:46;;;;;;;1.60;1.20;;;;;;;25.29;37.45;98642.13;5092181;28;43653;-82
2023/08/31 11:25:14;;;;;;;1.03;0.83;;;;;;;25.37;38.00;98682.66;5092230;28;42220;-81
2023/08/31 11:27:43;;;;;;;1.10;0.87;;;;;;;25.03;37.74;98666.25;5092789;28;40463;-81
2023/08/31 11:30:15;;;;;;;1.47;0.87;;;;;;;24.67;38.67;98648.13;5092000;28;40769;-77
2023/08/31 11:32:49;;;;;;;1.17;1.00;;;;;;;24.57;39.00;98650.31;5075651;28;41670;-83
2023/08/31 11:35:17;;;;;;;1.47;0.90;;;;;;;24.96;38.67;98673.50;5090987;28;43429;-77
2023/08/31 11:37:45;;;;;;;1.17;0.90;;;;;;;26.48;37.57;98656.53;5092155;28;40099;-80
2023/08/31 11:40:15;;;;;;;1.77;1.20;;;;;;;26.94;36.21;98686.66;5109272;28;41876;-81
2023/08/31 11:42:43;;;;;;;1.97;1.10;;;;;;;26.95;35.90;98676.63;5092422;28;42798;-80